Time;durP1;ratioP1;P1;durP2;ratioP2;P2;SDS_P1;SDS_P2;PMS_P1;PMS_P2;Temp;Humidity;BMP_temperature;BMP_pressure;BME280_temperature;BME280_humidity;BME280_pressure;Samples;Min_cycle;Max_cycle;Signal;HPM_P1;HPM_P2
2020/12/25 00:02:14;;;;;;;24.72;13.13;;;;;;;8.84;100.00;100344.45;1799077;79;21207;-53
2020/12/25 00:04:42;;;;;;;31.75;13.72;;;;;;;8.85;100.00;100346.22;1799236;79;20886;-53
2020/12/25 00:07:10;;;;;;;27.22;13.50;;;;;;;8.84;100.00;100356.03;1799201;79;21088;-53
2020/12/25 00:09:39;;;;;;;27.80;13.68;;;;;;;8.83;100.00;100351.61;1799205;79;21071;-53
2020/12/25 00:12:08;;;;;;;27.42;12.40;;;;;;;8.82;100.00;100347.19;1799177;79;21428;-53
2020/12/25 00:14:35;;;;;;;26.80;12.98;;;;;;;8.82;100.00;100350.31;1799277;79;21594;-53
2020/12/25 00:17:02;;;;;;;26.75;13.75;;;;;;;8.81;100.00;100353.46;1799344;79;21171;-54
2020/12/25 00:19:30;;;;;;;27.80;13.15;;;;;;;8.81;100.00;100357.47;1799299;79;21421;-53
2020/12/25 00:21:58;;;;;;;26.68;13.80;;;;;;;8.84;100.00;100356.03;1799264;79;21130;-54
2020/12/25 00:24:25;;;;;;;32.75;14.25;;;;;;;8.85;100.00;100347.08;1799208;79;21192;-53
2020/12/25 00:26:53;;;;;;;24.43;13.15;;;;;;;8.86;100.00;100340.80;1799068;79;21016;-53
2020/12/25 00:29:20;;;;;;;27.02;14.68;;;;;;;8.87;100.00;100331.86;1799179;79;21198;-54
2020/12/25 00:31:48;;;;;;;32.45;13.83;;;;;;;8.89;100.00;100335.34;1799154;79;21148;-53
2020/12/25 00:34:16;;;;;;;28.07;14.45;;;;;;;8.90;100.00;100328.22;1799107;79;21148;-53
2020/12/25 00:36:45;;;;;;;26.95;13.40;;;;;;;8.91;100.00;100321.05;1807779;78;21329;-53
2020/12/25 00:39:14;;;;;;;29.32;14.15;;;;;;;8.89;100.00;100324.66;1814220;78;21061;-53
2020/12/25 00:41:44;;;;;;;32.23;15.25;;;;;;;8.89;100.00;100328.66;1830088;78;21054;-53
2020/12/25 00:44:12;;;;;;;31.45;14.85;;;;;;;8.86;100.00;100314.07;1830145;78;21035;-53
2020/12/25 00:46:40;;;;;;;34.50;15.43;;;;;;;8.87;100.00;100321.16;1830066;77;21054;-53
2020/12/25 00:49:07;;;;;;;31.52;15.90;;;;;;;8.89;100.00;100313.11;1830089;78;21353;-54
2020/12/25 00:51:35;;;;;;;36.63;15.75;;;;;;;8.92;100.00;100302.30;1830043;78;20987;-53
2020/12/25 00:54:03;;;;;;;31.48;16.15;;;;;;;8.95;100.00;100311.98;1830056;78;21047;-53
2020/12/25 00:56:53;;;;;;;31.97;16.03;;;;;;;9.02;100.00;100304.19;1889417;76;28461;-53
2020/12/25 00:59:23;;;;;;;33.40;16.15;;;;;;;8.98;100.00;100302.07;1836689;77;20869;-53
2020/12/25 01:01:51;;;;;;;37.38;17.17;;;;;;;8.99;100.00;100290.92;1790139;80;21668;-53
2020/12/25 01:04:20;;;;;;;39.03;18.55;;;;;;;8.97;100.00;100288.77;1790132;80;21392;-52
2020/12/25 01:06:47;;;;;;;35.63;17.65;;;;;;;8.96;100.00;100288.37;1790106;80;21045;-53
2020/12/25 01:09:15;;;;;;;35.65;18.05;;;;;;;8.95;100.00;100282.58;1790074;80;21000;-52
2020/12/25 01:11:42;;;;;;;33.92;17.42;;;;;;;8.95;100.00;100289.27;1790173;80;20997;-53
2020/12/25 01:14:10;;;;;;;42.78;17.75;;;;;;;8.95;100.00;100274.56;1790101;80;21349;-53
2020/12/25 01:16:38;;;;;;;34.18;17.07;;;;;;;8.94;100.00;100271.48;1789907;80;20969;-53
2020/12/25 01:19:05;;;;;;;34.25;17.05;;;;;;;8.93;100.00;100255.03;1790103;80;20996;-52
2020/12/25 01:21:34;;;;;;;34.48;16.70;;;;;;;8.91;100.00;100256.89;1790018;80;21051;-54
2020/12/25 01:24:02;;;;;;;32.53;16.52;;;;;;;8.87;100.00;100250.31;1790010;80;21060;-54
2020/12/25 01:26:30;;;;;;;38.40;17.20;;;;;;;8.87;100.00;100244.12;1790098;80;21675;-53
2020/12/25 01:29:01;;;;;;;31.60;16.37;;;;;;;8.85;100.00;100245.49;1789993;80;20985;-54
2020/12/25 01:31:31;;;;;;;30.08;15.88;;;;;;;8.86;100.00;100239.22;1790047;80;20905;-53
2020/12/25 01:33:59;;;;;;;33.75;15.30;;;;;;;8.86;100.00;100230.34;1790087;80;21115;-53
2020/12/25 01:36:26;;;;;;;27.67;13.83;;;;;;;8.86;100.00;100236.55;1791066;79;21141;-52
2020/12/25 01:38:54;;;;;;;31.05;15.15;;;;;;;8.86;100.00;100236.55;1764801;81;22016;-53
2020/12/25 01:41:21;;;;;;;28.32;14.30;;;;;;;8.88;100.00;100229.34;1777285;80;20905;-52
2020/12/25 01:43:49;;;;;;;27.62;13.83;;;;;;;8.90;100.00;100237.31;1764749;81;21002;-54
2020/12/25 01:46:16;;;;;;;37.35;14.65;;;;;;;8.91;100.00;100246.20;1776220;80;20980;-52
2020/12/25 01:48:44;;;;;;;31.50;14.25;;;;;;;8.93;100.00;100251.02;1764858;81;21041;-53
2020/12/25 01:51:14;;;;;;;34.78;15.25;;;;;;;8.96;100.00;100248.27;1776357;80;21523;-53
2020/12/25 01:53:41;;;;;;;28.70;13.58;;;;;;;8.97;100.00;100247.33;1764668;81;21030;-54
2020/12/25 01:56:10;;;;;;;34.50;14.00;;;;;;;8.98;100.00;100238.38;1750556;80;21119;-53
2020/12/25 01:58:39;;;;;;;27.50;13.88;;;;;;;8.99;100.00;100242.80;1768004;81;21133;-52
2020/12/25 02:01:07;;;;;;;32.13;14.68;;;;;;;8.98;100.00;100242.39;1791723;80;21224;-53
2020/12/25 02:03:36;;;;;;;32.00;14.58;;;;;;;8.97;100.00;100247.33;1740560;81;21392;-53
2020/12/25 02:06:04;;;;;;;32.23;14.53;;;;;;;8.95;100.00;100243.81;1791600;80;21082;-53
2020/12/25 02:08:31;;;;;;;31.25;14.03;;;;;;;8.94;100.00;100238.06;1767477;81;21045;-53
2020/12/25 02:10:59;;;;;;;32.53;14.47;;;;;;;8.92;100.00;100250.61;1778979;80;21032;-54
2020/12/25 02:13:30;;;;;;;36.15;15.53;;;;;;;8.91;100.00;100252.88;1740237;81;21152;-53
2020/12/25 02:15:58;;;;;;;33.83;13.90;;;;;;;8.87;100.00;100246.31;1778945;80;22294;-53
2020/12/25 02:18:38;;;;;;;30.45;14.10;;;;;;;8.86;100.00;100246.38;1767482;81;21149;-53
2020/12/25 02:21:06;;;;;;;32.05;15.85;;;;;;;8.83;100.00;100247.35;1779014;80;21150;-54
2020/12/25 02:23:34;;;;;;;28.42;12.98;;;;;;;8.81;100.00;100241.64;1767410;81;21057;-53
2020/12/25 02:26:01;;;;;;;31.77;15.20;;;;;;;8.80;100.00;100242.12;1778949;80;21059;-53
2020/12/25 02:28:30;;;;;;;28.60;14.10;;;;;;;8.77;100.00;100243.58;1767508;81;21359;-53
2020/12/25 02:30:58;;;;;;;30.27;14.23;;;;;;;8.74;100.00;100243.69;1778962;80;20988;-53
2020/12/25 02:33:28;;;;;;;38.38;14.68;;;;;;;8.71;100.00;100242.43;1767402;81;20978;-54
2020/12/25 02:35:57;;;;;;;37.03;15.20;;;;;;;8.68;100.00;100247.44;1791036;80;21059;-53
2020/12/25 02:38:25;;;;;;;27.32;13.15;;;;;;;8.65;100.00;100250.67;1784692;80;21038;-54
2020/12/25 02:40:53;;;;;;;32.53;13.22;;;;;;;8.63;100.00;100254.75;1785088;80;21434;-52
2020/12/25 02:43:20;;;;;;;30.45;14.40;;;;;;;8.59;100.00;100255.31;1765085;80;21261;-53
2020/12/25 02:45:48;;;;;;;33.15;13.22;;;;;;;8.56;100.00;100255.42;1785111;80;22302;-52
2020/12/25 02:48:15;;;;;;;35.48;14.15;;;;;;;8.54;100.00;100254.61;1785097;80;21344;-53
2020/12/25 02:50:42;;;;;;;36.00;14.58;;;;;;;8.52;100.00;100252.45;1785161;80;21470;-53
2020/12/25 02:53:10;;;;;;;28.47;13.83;;;;;;;8.51;100.00;100241.36;1785126;80;21367;-54
2020/12/25 02:55:37;;;;;;;31.42;14.15;;;;;;;8.51;100.00;100244.03;1785698;80;21181;-53
2020/12/25 02:58:05;;;;;;;29.45;14.23;;;;;;;8.51;100.00;100236.02;1789475;80;21141;-53
2020/12/25 03:00:33;;;;;;;28.05;13.53;;;;;;;8.51;100.00;100234.67;1789523;80;20980;-53
2020/12/25 03:03:00;;;;;;;32.48;14.43;;;;;;;8.53;100.00;100239.50;1789495;80;21130;-53
2020/12/25 03:05:29;;;;;;;25.85;14.07;;;;;;;8.52;100.00;100231.08;1788590;80;21379;-54
2020/12/25 03:07:57;;;;;;;31.15;13.43;;;;;;;8.54;100.00;100234.56;1789369;80;21158;-53
2020/12/25 03:10:24;;;;;;;28.50;14.35;;;;;;;8.54;100.00;100233.23;1789444;80;21053;-54
2020/12/25 03:12:52;;;;;;;25.70;14.00;;;;;;;8.55;100.00;100229.63;1789508;80;20923;-53
2020/12/25 03:15:19;;;;;;;33.23;15.32;;;;;;;8.58;100.00;100233.97;1789361;80;21117;-53
2020/12/25 03:17:48;;;;;;;36.23;15.28;;;;;;;8.59;100.00;100241.95;1789445;80;21356;-53
2020/12/25 03:20:15;;;;;;;31.80;14.55;;;;;;;8.63;100.00;100233.82;1789323;80;21970;-53
2020/12/25 03:22:43;;;;;;;34.03;14.75;;;;;;;8.66;100.00;100235.05;1789432;80;21062;-52
2020/12/25 03:25:11;;;;;;;31.35;14.75;;;;;;;8.65;100.00;100226.17;1789471;80;21054;-53
2020/12/25 03:27:38;;;;;;;32.10;14.98;;;;;;;8.66;100.00;100219.91;1789387;80;21113;-52
2020/12/25 03:30:06;;;;;;;36.42;15.25;;;;;;;8.65;100.00;100207.91;1789455;80;21701;-53
2020/12/25 03:32:33;;;;;;;26.50;14.23;;;;;;;8.65;100.00;100202.57;1789407;80;20943;-53
2020/12/25 03:35:01;;;;;;;41.40;14.45;;;;;;;8.64;100.00;100204.84;1789364;80;20940;-53
2020/12/25 03:37:28;;;;;;;31.45;15.05;;;;;;;8.62;100.00;100193.33;1768952;80;21134;-53
2020/12/25 03:39:56;;;;;;;31.75;15.48;;;;;;;8.58;100.00;100181.42;1771297;80;20985;-52
2020/12/25 03:42:23;;;;;;;31.80;15.35;;;;;;;8.58;100.00;100173.41;1754771;81;21350;-53
2020/12/25 03:44:54;;;;;;;29.37;14.33;;;;;;;8.59;100.00;100171.59;1771183;81;20925;-52
2020/12/25 03:47:24;;;;;;;30.02;14.50;;;;;;;8.59;100.00;100165.80;1754750;81;20990;-53
2020/12/25 03:49:53;;;;;;;31.93;15.03;;;;;;;8.59;100.00;100173.81;1771252;81;21143;-53
2020/12/25 03:52:21;;;;;;;35.88;16.00;;;;;;;8.60;100.00;100171.55;1754702;81;21145;-54
2020/12/25 03:54:48;;;;;;;27.85;15.10;;;;;;;8.60;100.00;100167.98;1771217;81;21427;-53
2020/12/25 03:57:17;;;;;;;30.95;15.45;;;;;;;8.58;100.00;100166.73;1758810;81;21197;-53
2020/12/25 03:59:45;;;;;;;31.27;14.50;;;;;;;8.56;100.00;100171.25;1803054;79;21049;-52
2020/12/25 04:02:13;;;;;;;30.82;13.93;;;;;;;8.53;100.00;100172.70;1814318;79;21068;-53
2020/12/25 04:04:41;;;;;;;27.95;14.80;;;;;;;8.51;100.00;100178.57;1814264;79;21056;-51
2020/12/25 04:07:08;;;;;;;29.87;13.72;;;;;;;8.49;100.00;100173.69;1814305;79;21662;-52
2020/12/25 04:09:37;;;;;;;32.53;14.78;;;;;;;8.48;100.00;100169.27;1814255;79;21229;-53
2020/12/25 04:12:04;;;;;;;31.30;14.33;;;;;;;8.47;100.00;100168.86;1814194;79;21037;-53
2020/12/25 04:14:32;;;;;;;28.30;14.43;;;;;;;8.46;100.00;100181.81;1814234;79;21060;-53
2020/12/25 04:16:59;;;;;;;30.50;13.83;;;;;;;8.43;100.00;100173.91;1814239;78;21143;-52
2020/12/25 04:19:27;;;;;;;30.85;14.05;;;;;;;8.41;100.00;100173.98;1814312;79;21618;-53
2020/12/25 04:21:54;;;;;;;31.12;14.03;;;;;;;8.41;100.00;100174.43;1814191;79;21071;-53
2020/12/25 04:24:22;;;;;;;33.30;14.68;;;;;;;8.38;100.00;100174.06;1814246;79;20949;-53
2020/12/25 04:26:49;;;;;;;31.62;14.93;;;;;;;8.38;100.00;100175.87;1814279;79;21103;-52
2020/12/25 04:29:17;;;;;;;27.52;14.60;;;;;;;8.35;100.00;100170.65;1814294;79;21001;-52
2020/12/25 04:31:44;;;;;;;30.02;13.75;;;;;;;8.32;100.00;100171.62;1814220;79;21699;-52
2020/12/25 04:34:12;;;;;;;31.27;14.13;;;;;;;8.30;100.00;100179.70;1814251;79;21116;-53
2020/12/25 04:36:40;;;;;;;32.25;14.30;;;;;;;8.27;100.00;100183.78;1805986;78;21139;-53
2020/12/25 04:39:08;;;;;;;30.10;14.73;;;;;;;8.22;100.00;100179.07;1782096;80;21127;-53
2020/12/25 04:41:36;;;;;;;32.20;14.55;;;;;;;8.17;100.00;100174.36;1782221;80;21040;-54
2020/12/25 04:44:04;;;;;;;28.77;14.03;;;;;;;8.13;100.00;100180.73;1782215;80;21364;-54
2020/12/25 04:46:31;;;;;;;32.38;14.83;;;;;;;8.10;100.00;100172.36;1782104;80;20941;-54
2020/12/25 04:48:59;;;;;;;28.32;13.35;;;;;;;8.05;100.00;100167.64;1782235;80;20993;-54
2020/12/25 04:51:27;;;;;;;28.73;15.30;;;;;;;8.02;100.00;100179.28;1782335;80;21214;-55
2020/12/25 04:53:54;;;;;;;32.10;14.68;;;;;;;8.00;100.00;100178.47;1782257;80;21433;-53
2020/12/25 04:56:23;;;;;;;27.67;14.13;;;;;;;7.97;100.00;100188.39;1781380;80;21635;-54
2020/12/25 04:58:51;;;;;;;31.93;14.63;;;;;;;7.98;100.00;100192.81;1779151;80;21127;-53
2020/12/25 05:01:19;;;;;;;31.30;14.47;;;;;;;7.95;100.00;100191.10;1779073;80;21127;-54
2020/12/25 05:03:46;;;;;;;31.80;14.20;;;;;;;7.96;100.00;100194.18;1779133;80;21151;-53
2020/12/25 05:06:18;;;;;;;29.52;14.35;;;;;;;7.95;100.00;100193.77;1779175;80;21052;-53
2020/12/25 05:08:51;;;;;;;25.65;13.95;;;;;;;7.94;100.00;100196.03;1779143;80;21540;-53
2020/12/25 05:11:20;;;;;;;25.72;13.48;;;;;;;7.93;100.00;100198.29;1778999;80;21191;-53
2020/12/25 05:13:52;;;;;;;30.70;13.90;;;;;;;7.93;100.00;100198.73;1779128;80;21139;-53
2020/12/25 05:16:22;;;;;;;28.10;14.47;;;;;;;7.92;100.00;100191.66;1779141;80;21128;-53
2020/12/25 05:18:52;;;;;;;27.22;13.75;;;;;;;7.91;100.00;100208.14;1779120;80;21095;-53
2020/12/25 05:21:21;;;;;;;25.95;14.00;;;;;;;7.88;100.00;100198.91;1779115;80;21442;-54
2020/12/25 05:23:49;;;;;;;30.97;14.05;;;;;;;7.87;100.00;100209.17;1779022;80;21103;-53
2020/12/25 05:26:18;;;;;;;26.77;13.72;;;;;;;7.86;100.00;100203.43;1779108;80;21580;-54
2020/12/25 05:28:48;;;;;;;33.92;14.53;;;;;;;7.83;100.00;100197.72;1779050;80;21073;-53
2020/12/25 05:31:17;;;;;;;30.25;13.93;;;;;;;7.80;100.00;100200.94;1779089;80;21159;-54
2020/12/25 05:33:49;;;;;;;32.38;14.00;;;;;;;7.80;100.00;100216.95;1779125;80;21355;-52
2020/12/25 05:36:17;;;;;;;28.70;14.43;;;;;;;7.79;100.00;100231.22;1754837;79;21163;-53
2020/12/25 05:38:48;;;;;;;31.57;15.15;;;;;;;7.77;100.00;100222.39;1811093;79;21123;-53
2020/12/25 05:41:16;;;;;;;32.73;14.55;;;;;;;7.74;100.00;100222.90;1811131;79;21505;-53
2020/12/25 05:43:48;;;;;;;30.05;12.98;;;;;;;7.71;100.00;100210.99;1792500;78;21087;-52
2020/12/25 05:46:15;;;;;;;34.23;14.53;;;;;;;7.69;100.00;100214.63;1779239;80;21489;-54
2020/12/25 05:48:51;;;;;;;30.75;14.28;;;;;;;7.67;100.00;100204.02;1779271;80;21084;-53
2020/12/25 05:51:25;;;;;;;26.97;14.27;;;;;;;7.70;100.00;100186.57;1873010;76;25654;-53
2020/12/25 05:53:54;;;;;;;31.97;14.15;;;;;;;7.64;100.00;100182.77;1840951;78;20926;-52
2020/12/25 05:56:21;;;;;;;30.08;14.10;;;;;;;7.63;100.00;100183.70;1840936;78;21240;-53
2020/12/25 05:58:49;;;;;;;31.87;14.05;;;;;;;7.61;100.00;100193.52;1840817;78;20978;-52
2020/12/25 06:01:16;;;;;;;30.08;15.08;;;;;;;7.58;100.00;100178.49;1840877;77;20910;-52
2020/12/25 06:03:44;;;;;;;32.98;14.38;;;;;;;7.56;100.00;100174.12;1840907;78;20918;-52
2020/12/25 06:06:13;;;;;;;32.30;13.95;;;;;;;7.54;100.00;100189.30;1811284;78;20918;-53
2020/12/25 06:08:57;;;;;;;30.88;15.05;;;;;;;7.52;100.00;100193.37;1840859;78;21179;-54
2020/12/25 06:11:30;;;;;;;30.65;14.93;;;;;;;7.51;100.00;100206.74;1840844;78;20922;-53
2020/12/25 06:13:58;;;;;;;30.48;15.75;;;;;;;7.50;100.00;100196.99;1840889;78;21410;-54
2020/12/25 06:16:28;;;;;;;33.23;14.33;;;;;;;7.51;100.00;100208.08;1840865;78;21067;-53
2020/12/25 06:19:07;;;;;;;28.80;14.00;;;;;;;7.51;100.00;100216.94;1841002;78;20910;-53
2020/12/25 06:21:56;;;;;;;28.27;14.30;;;;;;;7.53;100.00;100217.79;1840848;78;21185;-53
2020/12/25 06:24:31;;;;;;;32.28;15.25;;;;;;;7.54;100.00;100218.65;1840252;78;21064;-53
2020/12/25 06:27:00;;;;;;;35.95;15.03;;;;;;;7.53;100.00;100223.13;1840307;78;21175;-53
2020/12/25 06:29:28;;;;;;;35.83;14.43;;;;;;;7.53;100.00;100223.57;1840894;78;21374;-53
2020/12/25 06:31:59;;;;;;;30.97;15.18;;;;;;;7.53;100.00;100226.23;1840860;77;20965;-53
2020/12/25 06:34:40;;;;;;;27.98;13.88;;;;;;;7.55;100.00;100225.73;1840994;77;21500;-53
2020/12/25 06:37:11;;;;;;;24.67;13.10;;;;;;;7.57;100.00;100221.22;1837769;78;21163;-53
2020/12/25 06:39:38;;;;;;;24.98;12.75;;;;;;;7.63;100.00;100217.05;1840888;78;21119;-53
2020/12/25 06:42:11;;;;;;;27.35;13.53;;;;;;;7.68;100.00;100219.09;1785963;78;21045;-53
2020/12/25 06:44:42;;;;;;;26.75;13.80;;;;;;;7.74;100.00;100224.71;1811227;78;21182;-52
2020/12/25 06:47:10;;;;;;;24.10;13.58;;;;;;;7.81;100.00;100218.69;1840714;77;21333;-52
2020/12/25 06:49:38;;;;;;;27.80;13.30;;;;;;;7.83;100.00;100232.41;1840677;77;23015;-52
2020/12/25 06:52:05;;;;;;;26.87;13.28;;;;;;;7.88;100.00;100225.12;1810701;78;21079;-53
2020/12/25 06:54:41;;;;;;;27.52;13.75;;;;;;;7.94;99.97;100218.72;1840852;78;20930;-53
2020/12/25 06:57:10;;;;;;;27.80;13.30;;;;;;;7.98;99.69;100211.02;1840908;78;20990;-53
2020/12/25 06:59:39;;;;;;;28.07;13.45;;;;;;;8.02;99.23;100212.66;1840810;78;21340;-53
2020/12/25 07:02:07;;;;;;;27.77;13.80;;;;;;;8.07;98.82;100219.63;1784853;78;21472;-52
2020/12/25 07:04:36;;;;;;;28.52;15.38;;;;;;;8.10;98.46;100224.90;1840200;78;20946;-53
2020/12/25 07:07:07;;;;;;;33.30;14.20;;;;;;;8.11;98.21;100235.52;1840264;78;21045;-53
2020/12/25 07:09:38;;;;;;;33.53;13.85;;;;;;;8.10;97.79;100232.91;1840221;78;21084;-53
2020/12/25 07:12:15;;;;;;;29.82;13.78;;;;;;;8.09;97.71;100243.18;1840245;78;21355;-53
2020/12/25 07:14:42;;;;;;;33.53;14.10;;;;;;;8.09;97.54;100237.36;1840171;78;21092;-52
2020/12/25 07:17:10;;;;;;;29.00;13.95;;;;;;;8.11;97.51;100238.66;1840166;78;20993;-52
2020/12/25 07:19:39;;;;;;;27.13;14.33;;;;;;;8.10;97.51;100232.91;1840248;78;21009;-53
2020/12/25 07:22:07;;;;;;;27.30;14.25;;;;;;;8.12;97.50;100228.39;1840232;78;21029;-52
2020/12/25 07:24:40;;;;;;;32.30;14.73;;;;;;;8.15;97.44;100226.95;1840246;78;21310;-53
2020/12/25 07:27:09;;;;;;;32.17;14.40;;;;;;;8.16;97.22;100240.23;1840136;78;21041;-52
2020/12/25 07:29:38;;;;;;;27.15;14.73;;;;;;;8.16;97.05;100246.05;1840240;78;21520;-53
2020/12/25 07:32:07;;;;;;;27.75;13.43;;;;;;;8.16;96.99;100247.38;1840343;78;22284;-53
2020/12/25 07:34:34;;;;;;;29.67;14.35;;;;;;;8.17;96.98;100259.81;1840292;78;21139;-53
2020/12/25 07:37:02;;;;;;;29.02;14.05;;;;;;;8.19;96.92;100251.77;1834958;78;21367;-52
2020/12/25 07:39:30;;;;;;;28.47;13.68;;;;;;;8.21;96.76;100253.44;1827299;77;21137;-53
2020/12/25 07:41:58;;;;;;;31.62;14.18;;;;;;;8.23;96.51;100255.59;1827269;78;20988;-53
2020/12/25 07:44:26;;;;;;;30.48;14.80;;;;;;;8.23;96.33;100255.59;1827417;78;20991;-53
2020/12/25 07:46:54;;;;;;;28.92;13.98;;;;;;;8.25;96.31;100244.39;1827395;78;20932;-52
2020/12/25 07:49:21;;;;;;;31.73;13.43;;;;;;;8.28;96.22;100253.63;1827249;78;21346;-53
2020/12/25 07:51:49;;;;;;;24.77;13.58;;;;;;;8.31;95.97;100258.91;1827098;78;21118;-52
2020/12/25 07:54:17;;;;;;;28.55;14.85;;;;;;;8.37;95.67;100259.61;1827328;78;20917;-53
2020/12/25 07:56:45;;;;;;;30.60;13.43;;;;;;;8.41;95.27;100263.92;1827253;77;20916;-53
2020/12/25 07:59:12;;;;;;;25.92;13.80;;;;;;;8.46;94.96;100268.64;1819427;78;20981;-53
2020/12/25 08:01:40;;;;;;;24.45;13.58;;;;;;;8.52;94.61;100261.80;1807196;79;21382;-53
2020/12/25 08:04:08;;;;;;;29.92;15.20;;;;;;;8.56;94.20;100263.44;1807105;79;21525;-53
2020/12/25 08:06:36;;;;;;;28.92;13.15;;;;;;;8.62;93.88;100267.70;1807154;79;21057;-52
2020/12/25 08:09:07;;;;;;;29.70;13.95;;;;;;;8.68;93.49;100265.26;1807156;79;21500;-53
2020/12/25 08:11:36;;;;;;;28.40;15.10;;;;;;;8.74;93.13;100263.73;1807232;78;21041;-53
2020/12/25 08:14:09;;;;;;;25.10;13.68;;;;;;;8.80;92.73;100259.50;1807146;79;21136;-53
2020/12/25 08:16:45;;;;;;;33.05;13.80;;;;;;;8.84;92.34;100274.49;1807190;79;21564;-52
2020/12/25 08:19:12;;;;;;;24.52;13.75;;;;;;;8.85;92.19;100258.86;1753486;79;21119;-53
2020/12/25 08:21:39;;;;;;;26.12;13.53;;;;;;;8.87;91.95;100266.36;1807163;78;21016;-53
2020/12/25 08:24:09;;;;;;;25.65;13.35;;;;;;;8.87;91.99;100255.66;1807184;79;21052;-55
2020/12/25 08:26:40;;;;;;;26.62;13.93;;;;;;;8.89;92.01;100251.61;1807196;78;21421;-53
2020/12/25 08:29:08;;;;;;;21.97;12.90;;;;;;;8.91;91.90;100258.22;1807239;79;21587;-54
2020/12/25 08:31:40;;;;;;;25.17;13.53;;;;;;;8.96;91.78;100273.66;1807188;79;21179;-53
2020/12/25 08:34:21;;;;;;;27.13;13.90;;;;;;;8.98;91.71;100263.78;1807220;79;21588;-53
2020/12/25 08:36:58;;;;;;;25.95;13.53;;;;;;;8.99;91.73;100276.22;1812491;78;21055;-51
2020/12/25 08:39:28;;;;;;;21.93;13.25;;;;;;;9.01;91.81;100291.74;1827145;78;22359;-52
2020/12/25 08:41:55;;;;;;;23.73;14.28;;;;;;;9.06;91.86;100292.44;1827165;78;21482;-52
2020/12/25 08:44:24;;;;;;;27.75;15.48;;;;;;;9.15;91.69;100284.07;1827284;77;20936;-53
2020/12/25 08:47:08;;;;;;;25.80;15.03;;;;;;;9.22;91.21;100279.38;1827295;78;20975;-53
2020/12/25 08:49:36;;;;;;;23.77;14.90;;;;;;;9.28;90.75;100291.66;1811947;78;21031;-53
2020/12/25 08:52:20;;;;;;;23.02;13.48;;;;;;;9.26;90.28;100276.98;1827132;78;21370;-53
2020/12/25 08:54:59;;;;;;;26.25;14.15;;;;;;;9.31;90.37;100287.08;1827190;78;21039;-53
2020/12/25 08:57:27;;;;;;;28.38;15.23;;;;;;;9.37;90.03;100275.25;1827286;78;20881;-53
2020/12/25 09:00:06;;;;;;;24.27;15.00;;;;;;;9.45;89.82;100282.55;1827235;78;21054;-52
2020/12/25 09:02:33;;;;;;;27.13;15.25;;;;;;;9.52;89.39;100271.14;1827322;78;21027;-53
2020/12/25 09:05:02;;;;;;;23.35;14.15;;;;;;;9.57;88.71;100278.97;1827278;78;21537;-54
2020/12/25 09:07:29;;;;;;;26.12;14.60;;;;;;;9.60;88.28;100273.50;1827156;77;21128;-52
2020/12/25 09:09:57;;;;;;;27.55;15.23;;;;;;;9.65;88.10;100269.31;1827272;77;21146;-52
2020/12/25 09:12:25;;;;;;;41.90;16.07;;;;;;;9.72;88.01;100263.67;1827214;78;21043;-54
2020/12/25 09:14:52;;;;;;;28.60;15.58;;;;;;;9.82;87.92;100266.86;1827333;78;21091;-53
2020/12/25 09:17:21;;;;;;;22.65;13.90;;;;;;;9.89;87.46;100271.51;1827206;78;21329;-54
2020/12/25 09:19:49;;;;;;;22.07;14.00;;;;;;;9.97;87.42;100273.40;1827166;78;21019;-52
2020/12/25 09:22:16;;;;;;;24.92;15.40;;;;;;;10.04;86.67;100268.19;1827294;78;20936;-53
2020/12/25 09:24:44;;;;;;;22.85;13.85;;;;;;;10.06;85.78;100273.95;1827243;78;21070;-53
2020/12/25 09:27:12;;;;;;;25.97;15.45;;;;;;;10.02;85.32;100267.87;1827262;77;21114;-54
2020/12/25 09:29:40;;;;;;;25.80;14.63;;;;;;;10.00;85.42;100267.91;1827210;78;21674;-54
2020/12/25 09:32:08;;;;;;;27.20;15.28;;;;;;;10.02;85.27;100263.84;1827293;77;21161;-53
2020/12/25 09:34:36;;;;;;;27.73;14.98;;;;;;;10.02;85.33;100266.04;1827461;77;22370;-53
2020/12/25 09:37:03;;;;;;;47.35;16.40;;;;;;;10.03;85.46;100261.09;1832595;78;21497;-54
2020/12/25 09:39:32;;;;;;;27.95;15.18;;;;;;;10.10;85.58;100263.55;1836967;78;21116;-53
2020/12/25 09:42:00;;;;;;;24.65;14.80;;;;;;;10.16;85.49;100256.58;1840110;78;21342;-54
2020/12/25 09:44:27;;;;;;;27.58;15.20;;;;;;;10.19;85.03;100263.15;1840029;78;20930;-53
2020/12/25 09:46:55;;;;;;;28.50;16.12;;;;;;;10.14;84.66;100241.05;1837014;78;20969;-53
2020/12/25 09:49:22;;;;;;;27.95;16.48;;;;;;;10.08;84.41;100242.64;1807131;79;21575;-53
2020/12/25 09:51:50;;;;;;;30.10;15.88;;;;;;;10.00;84.49;100241.13;1761707;81;21141;-53
2020/12/25 09:54:17;;;;;;;27.13;15.98;;;;;;;9.99;84.57;100234.03;1755474;81;21341;-52
2020/12/25 09:56:45;;;;;;;27.65;15.40;;;;;;;10.02;84.77;100233.91;1755432;81;21101;-53
2020/12/25 09:59:13;;;;;;;28.47;15.85;;;;;;;10.11;84.68;100238.02;1701623;81;21136;-53
2020/12/25 10:01:40;;;;;;;30.37;16.25;;;;;;;10.18;84.60;100230.60;1755414;81;21148;-54
2020/12/25 10:04:08;;;;;;;29.25;15.18;;;;;;;10.25;84.48;100231.22;1755473;81;21044;-53
2020/12/25 10:06:35;;;;;;;26.20;16.77;;;;;;;10.31;84.10;100209.06;1755435;81;21596;-53
2020/12/25 10:09:04;;;;;;;24.37;15.45;;;;;;;10.35;83.66;100214.29;1755472;81;21065;-53
2020/12/25 10:11:32;;;;;;;24.65;15.10;;;;;;;10.35;83.28;100203.57;1755388;81;21125;-52
2020/12/25 10:13:59;;;;;;;39.10;16.25;;;;;;;10.36;83.21;100212.02;1755454;81;21144;-55
2020/12/25 10:16:27;;;;;;;28.45;16.55;;;;;;;10.37;83.17;100204.38;1755407;81;21077;-53
2020/12/25 10:18:54;;;;;;;27.20;15.95;;;;;;;10.36;83.17;100203.97;1755511;81;21383;-53
2020/12/25 10:21:22;;;;;;;26.73;16.00;;;;;;;10.32;83.06;100209.47;1755327;81;21129;-53
2020/12/25 10:23:49;;;;;;;31.33;15.80;;;;;;;10.25;83.25;100217.34;1755427;81;21120;-53
2020/12/25 10:26:17;;;;;;;32.25;16.25;;;;;;;10.23;83.48;100223.23;1755415;81;21061;-53
2020/12/25 10:28:45;;;;;;;27.32;16.35;;;;;;;10.24;83.63;100214.27;1755451;81;21057;-53
2020/12/25 10:31:13;;;;;;;27.13;16.55;;;;;;;10.22;83.42;100212.60;1755468;81;21456;-53
2020/12/25 10:33:40;;;;;;;25.62;15.75;;;;;;;10.19;83.48;100208.23;1755371;81;21148;-53
2020/12/25 10:36:09;;;;;;;25.62;16.20;;;;;;;10.17;83.66;100210.11;1755463;81;21144;-53
2020/12/25 10:38:37;;;;;;;26.15;16.12;;;;;;;10.15;83.80;100200.78;1755655;81;21049;-53
2020/12/25 10:41:07;;;;;;;31.10;17.07;;;;;;;10.20;83.92;100203.27;1755567;81;21061;-53
2020/12/25 10:43:34;;;;;;;31.93;17.30;;;;;;;10.24;83.55;100199.53;1755667;81;21391;-53
2020/12/25 10:46:02;;;;;;;28.67;16.30;;;;;;;10.29;83.28;100201.56;1755515;81;20998;-53
2020/12/25 10:48:29;;;;;;;27.32;16.30;;;;;;;10.30;83.04;100192.59;1755562;81;21153;-54
2020/12/25 10:50:57;;;;;;;27.80;16.70;;;;;;;10.35;83.11;100194.19;1754653;81;21287;-53
2020/12/25 10:53:24;;;;;;;28.40;16.57;;;;;;;10.39;83.05;100190.44;1750012;82;21109;-53
2020/12/25 10:55:52;;;;;;;28.80;16.57;;;;;;;10.42;83.11;100203.73;1749954;82;21362;-53
2020/12/25 10:58:19;;;;;;;26.70;15.85;;;;;;;10.44;83.05;100203.20;1749925;80;21542;-53
2020/12/25 11:00:47;;;;;;;26.57;17.20;;;;;;;10.44;83.16;100205.88;1749956;82;21097;-54
2020/12/25 11:03:15;;;;;;;29.37;16.02;;;;;;;10.42;83.22;100210.43;1749992;82;21053;-53
2020/12/25 11:05:43;;;;;;;28.75;16.30;;;;;;;10.38;83.37;100204.77;1749972;82;21105;-53
2020/12/25 11:08:11;;;;;;;24.90;16.02;;;;;;;10.40;83.50;100202.89;1749981;82;21218;-53
2020/12/25 11:10:44;;;;;;;29.77;16.35;;;;;;;10.43;83.60;100202.80;1749408;81;21117;-54
2020/12/25 11:13:11;;;;;;;27.40;16.45;;;;;;;10.45;83.55;100202.25;1749963;82;21145;-53
2020/12/25 11:15:40;;;;;;;33.75;16.55;;;;;;;10.48;83.78;100212.84;1749963;82;21141;-53
2020/12/25 11:18:08;;;;;;;26.97;16.70;;;;;;;10.45;84.00;100215.20;1750005;82;21061;-53
2020/12/25 11:20:36;;;;;;;32.10;18.02;;;;;;;10.46;84.35;100221.42;1750001;81;21528;-53